Terminal Aerodrome Forecast
Issued by NWS

Home | Current Version | Previous Version | Text Only | Print | Product List | Glossary On
Versions: 1 2 3 4 5 6 7 8 9 10 11 12 13 14 15 16 17
000
FTUS45 KABQ 041100
TAFFMN
TAF
KFMN 041138Z 0412/0512 VRB05KT P6SM SCT035 BKN060
      TEMPO 0412/0415 BKN030
     FM041700 28012KT P6SM BKN080
     FM042000 29020G32KT P6SM SCT120
     FM050200 29012KT P6SM SKC
     FM050700 VRB05KT P6SM SKC=

USA.gov is the U.S. government's official web portal to all federal, state and local government web resources and services.